Terminal Aerodrome Forecast
Issued by NWS Charleston, WV

Current Version | Previous Version | Graphics & Text | Print | Product List | Glossary On
Versions: 1 2 3 4 5 6 7 8 9 10 11 12 13 14 15 16 17 18 19 20 21 22 23 24 25
040
FTUS41 KRLX 211947 AAC
TAFCRW
TAF AMD
KCRW 211947Z 2120/2218 33007G23KT 6SM -SHRA BKN040
      TEMPO 2120/2124 2SM -SHRA BKN035
     FM220000 36004KT 4SM SHRA OVC021
     FM221200 VRB03KT 4SM +SHRA BKN015
     FM221600 VRB03KT 5SM +SHRA BKN035=

USA.gov is the U.S. government's official web portal to all federal, state and local government web resources and services.